Time;durP1;ratioP1;P1;durP2;ratioP2;P2;SDS_P1;SDS_P2;PMS_P1;PMS_P2;Temp;Humidity;BMP_temperature;BMP_pressure;BME280_temperature;BME280_humidity;BME280_pressure;Samples;Min_cycle;Max_cycle;Signal;HPM_P1;HPM_P2
2021/05/01 00:01:17;;;;;;;27.48;21.20;;;13.30;52.50;;;;;;1489747;39;20445;-54
2021/05/01 00:02:38;;;;;;;26.92;21.25;;;13.30;52.50;;;;;;1490699;39;20118;-51
2021/05/01 00:03:58;;;;;;;26.77;21.75;;;13.30;52.50;;;;;;1489342;39;20451;-51
2021/05/01 00:05:19;;;;;;;27.70;22.38;;;13.30;52.50;;;;;;1490793;39;20035;-53
2021/05/01 00:06:40;;;;;;;24.70;20.70;;;13.30;53.10;;;;;;1489828;39;20518;-51
2021/05/01 00:08:01;;;;;;;23.95;20.27;;;13.30;52.60;;;;;;1490035;39;20024;-51
2021/05/01 00:09:22;;;;;;;28.40;22.00;;;13.30;52.60;;;;;;1488898;39;20047;-51
2021/05/01 00:10:43;;;;;;;30.15;22.63;;;13.30;52.70;;;;;;1489240;39;20024;-53
2021/05/01 00:12:04;;;;;;;28.67;22.77;;;13.20;52.70;;;;;;1487961;39;20039;-50
2021/05/01 00:13:25;;;;;;;27.13;21.98;;;13.20;52.70;;;;;;1489255;39;20035;-53
2021/05/01 00:14:46;;;;;;;25.10;21.58;;;13.20;52.70;;;;;;1487377;39;20189;-53
2021/05/01 00:16:07;;;;;;;26.88;22.08;;;13.20;52.70;;;;;;1489464;39;20024;-50
2021/05/01 00:17:28;;;;;;;27.80;22.60;;;13.20;52.80;;;;;;1488379;39;20413;-50
2021/05/01 00:18:49;;;;;;;24.70;21.05;;;13.20;52.80;;;;;;1488528;39;20083;-53
2021/05/01 00:20:10;;;;;;;26.15;21.13;;;13.20;52.80;;;;;;1490295;39;20392;-49
2021/05/01 00:21:31;;;;;;;26.75;22.05;;;13.10;53.30;;;;;;1489225;39;20034;-50
2021/05/01 00:22:52;;;;;;;28.02;22.05;;;13.10;52.80;;;;;;1489972;39;20040;-52
2021/05/01 00:24:13;;;;;;;29.33;22.88;;;13.10;52.90;;;;;;1489950;39;20376;-52
2021/05/01 00:25:34;;;;;;;28.27;22.20;;;13.10;53.00;;;;;;1490927;39;20084;-49
2021/05/01 00:26:55;;;;;;;27.42;23.88;;;13.00;53.00;;;;;;1489250;39;20035;-53
2021/05/01 00:28:16;;;;;;;28.60;23.27;;;13.00;53.10;;;;;;1490593;39;20044;-51
2021/05/01 00:29:36;;;;;;;28.02;22.90;;;13.00;53.10;;;;;;1489085;39;20031;-51
2021/05/01 00:30:57;;;;;;;28.83;23.95;;;13.00;53.20;;;;;;1491483;39;20197;-54
2021/05/01 00:32:18;;;;;;;29.10;23.58;;;13.00;53.30;;;;;;1488869;39;20105;-53
2021/05/01 00:33:39;;;;;;;29.17;22.63;;;13.00;53.40;;;;;;1489853;39;20983;-52
2021/05/01 00:35:01;;;;;;;26.25;22.02;;;12.90;53.40;;;;;;1490263;39;20031;-50
2021/05/01 00:36:22;;;;;;;29.35;23.60;;;13.00;53.60;;;;;;1489741;39;20052;-49
2021/05/01 00:37:43;;;;;;;29.10;24.45;;;12.90;53.70;;;;;;1490309;39;20023;-50
2021/05/01 00:39:05;;;;;;;30.50;23.45;;;12.90;53.70;;;;;;1490483;39;20154;-49
2021/05/01 00:40:26;;;;;;;32.33;24.75;;;12.90;53.80;;;;;;1490034;39;20034;-51
2021/05/01 00:41:47;;;;;;;29.58;23.40;;;12.90;53.80;;;;;;1488459;39;20028;-48
2021/05/01 00:43:08;;;;;;;30.45;24.05;;;12.90;53.90;;;;;;1490196;39;20039;-53
2021/05/01 00:44:29;;;;;;;31.25;24.73;;;12.90;54.00;;;;;;1489661;39;20525;-54
2021/05/01 00:45:50;;;;;;;30.08;24.48;;;12.90;54.00;;;;;;1490746;39;20032;-51
2021/05/01 00:47:11;;;;;;;31.30;25.40;;;12.90;54.10;;;;;;1489825;39;20418;-50
2021/05/01 00:48:32;;;;;;;31.70;23.85;;;12.90;54.10;;;;;;1489598;39;20016;-48
2021/05/01 00:49:53;;;;;;;31.15;25.50;;;12.90;54.10;;;;;;1491090;39;20043;-50
2021/05/01 00:51:14;;;;;;;29.63;24.20;;;12.90;54.10;;;;;;1487675;39;20043;-50
2021/05/01 00:52:35;;;;;;;31.40;24.45;;;12.90;54.20;;;;;;1490817;39;20373;-52
2021/05/01 00:53:56;;;;;;;30.13;24.15;;;12.80;54.10;;;;;;1486561;40;20036;-51
2021/05/01 00:55:17;;;;;;;29.48;23.95;;;12.80;54.10;;;;;;1486798;39;20029;-50
2021/05/01 00:56:38;;;;;;;30.92;24.35;;;12.80;54.10;;;;;;1488838;39;20023;-52
2021/05/01 00:58:00;;;;;;;28.88;23.65;;;12.80;54.20;;;;;;1488391;39;20096;-53
2021/05/01 00:59:21;;;;;;;30.85;25.27;;;12.80;54.20;;;;;;1490533;39;20032;-50
2021/05/01 01:01:00;;;;;;;31.83;25.05;;;12.80;54.20;;;;;;1488485;39;20020;-53
2021/05/01 01:02:26;;;;;;;28.73;23.63;;;12.80;54.30;;;;;;1488055;39;20039;-52
2021/05/01 01:03:48;;;;;;;30.45;23.65;;;12.80;54.20;;;;;;1488970;39;20035;-50
2021/05/01 01:05:09;;;;;;;32.05;24.80;;;12.80;54.20;;;;;;1488789;39;20141;-49
2021/05/01 01:06:30;;;;;;;32.67;25.98;;;12.80;54.30;;;;;;1489559;39;20541;-49
2021/05/01 01:07:51;;;;;;;32.58;24.88;;;12.70;54.30;;;;;;1491114;39;20109;-52
2021/05/01 01:09:13;;;;;;;30.52;25.25;;;12.70;54.40;;;;;;1490826;39;20027;-51
2021/05/01 01:10:34;;;;;;;29.30;24.20;;;12.70;54.40;;;;;;1488971;39;20040;-50
2021/05/01 01:11:55;;;;;;;29.77;24.40;;;12.70;54.40;;;;;;1488468;39;20032;-51
2021/05/01 01:13:16;;;;;;;32.70;25.60;;;12.70;54.40;;;;;;1489809;39;20040;-52
2021/05/01 01:14:37;;;;;;;30.83;25.08;;;12.60;54.40;;;;;;1490784;39;20035;-50
2021/05/01 01:15:58;;;;;;;30.45;24.95;;;12.60;54.40;;;;;;1489202;39;20103;-53
2021/05/01 01:17:19;;;;;;;35.55;25.27;;;12.60;54.50;;;;;;1483564;40;20056;-52
2021/05/01 01:18:40;;;;;;;33.83;25.17;;;12.60;54.60;;;;;;1489024;39;20036;-51
2021/05/01 01:20:03;;;;;;;30.42;24.65;;;12.60;54.60;;;;;;1489177;39;20032;-52
2021/05/01 01:21:24;;;;;;;33.85;23.90;;;12.60;54.60;;;;;;1490949;39;20044;-51
2021/05/01 01:22:46;;;;;;;31.95;26.10;;;12.60;54.60;;;;;;1488739;39;20052;-54
2021/05/01 01:24:08;;;;;;;31.55;24.50;;;12.50;54.60;;;;;;1490428;39;20093;-54
2021/05/01 01:25:29;;;;;;;31.73;25.63;;;12.50;54.70;;;;;;1489117;39;20047;-54
2021/05/01 01:26:50;;;;;;;30.38;24.63;;;12.50;54.70;;;;;;1489886;39;20035;-52
2021/05/01 01:28:11;;;;;;;31.02;25.35;;;12.50;54.70;;;;;;1489322;39;20032;-53
2021/05/01 01:29:32;;;;;;;32.63;26.65;;;12.50;54.80;;;;;;1490518;39;20032;-53
2021/05/01 01:30:54;;;;;;;33.97;25.52;;;12.50;54.80;;;;;;1490440;39;20032;-51
2021/05/01 01:32:14;;;;;;;33.22;25.65;;;12.50;54.80;;;;;;1490858;39;20085;-49
2021/05/01 01:33:36;;;;;;;31.85;25.13;;;12.40;54.70;;;;;;1487762;39;20799;-51
2021/05/01 01:34:57;;;;;;;33.40;25.42;;;12.40;54.80;;;;;;1489751;39;20016;-52
2021/05/01 01:36:18;;;;;;;32.15;25.70;;;12.40;54.80;;;;;;1490461;39;20035;-50
2021/05/01 01:37:42;;;;;;;33.25;26.02;;;12.40;54.80;;;;;;1490382;39;20047;-51
2021/05/01 01:39:03;;;;;;;33.13;25.33;;;12.40;54.90;;;;;;1490451;39;20020;-52
2021/05/01 01:40:25;;;;;;;33.05;26.13;;;12.40;55.00;;;;;;1489184;39;20393;-51
2021/05/01 01:41:46;;;;;;;32.38;25.35;;;12.40;55.00;;;;;;1489387;39;20354;-52
2021/05/01 01:43:07;;;;;;;34.80;26.95;;;12.40;55.00;;;;;;1488913;39;20375;-52
2021/05/01 01:44:28;;;;;;;33.97;26.75;;;12.30;54.90;;;;;;1489945;39;20051;-51
2021/05/01 01:45:49;;;;;;;32.60;25.15;;;12.30;55.00;;;;;;1488314;39;20355;-48
2021/05/01 01:47:10;;;;;;;32.38;25.92;;;12.30;55.00;;;;;;1490524;39;20142;-50
2021/05/01 01:48:31;;;;;;;30.60;24.92;;;12.30;55.00;;;;;;1489658;39;20028;-50
2021/05/01 01:49:52;;;;;;;33.80;26.80;;;12.30;55.00;;;;;;1489091;39;20045;-51
2021/05/01 01:51:12;;;;;;;32.03;25.42;;;12.20;55.10;;;;;;1490197;39;20116;-51
2021/05/01 01:52:36;;;;;;;33.05;27.17;;;12.20;55.20;;;;;;1489008;39;20396;-52
2021/05/01 01:53:57;;;;;;;33.30;25.10;;;12.20;55.20;;;;;;1490428;39;20039;-51
2021/05/01 01:55:20;;;;;;;32.58;25.65;;;12.20;55.30;;;;;;1488462;39;20040;-52
2021/05/01 01:56:41;;;;;;;32.53;25.40;;;12.20;55.40;;;;;;1489891;39;20035;-54
2021/05/01 01:58:02;;;;;;;32.85;25.75;;;12.20;55.30;;;;;;1488555;39;20353;-52
2021/05/01 01:59:23;;;;;;;33.03;25.52;;;12.20;55.40;;;;;;1489344;39;20043;-49
2021/05/01 02:00:45;;;;;;;33.60;26.27;;;12.20;55.40;;;;;;1488713;39;20032;-53
2021/05/01 02:02:06;;;;;;;33.72;25.13;;;12.20;55.60;;;;;;1490765;39;20032;-52
2021/05/01 02:03:27;;;;;;;32.03;24.73;;;12.20;55.50;;;;;;1487577;39;20250;-51
2021/05/01 02:04:48;;;;;;;32.25;25.40;;;12.10;55.40;;;;;;1489497;39;20044;-52
2021/05/01 02:06:08;;;;;;;31.27;24.67;;;12.10;55.50;;;;;;1489389;39;20431;-52
2021/05/01 02:07:29;;;;;;;31.30;24.30;;;12.10;55.50;;;;;;1489766;39;20027;-53
2021/05/01 02:08:51;;;;;;;35.15;24.70;;;12.10;55.60;;;;;;1489884;39;20168;-51
2021/05/01 02:10:14;;;;;;;33.05;25.85;;;12.10;55.60;;;;;;1490884;39;20232;-50
2021/05/01 02:11:35;;;;;;;36.42;25.73;;;12.10;55.70;;;;;;1489613;39;20136;-51
2021/05/01 02:12:56;;;;;;;32.88;25.10;;;12.00;55.60;;;;;;1490563;39;20027;-49
2021/05/01 02:14:17;;;;;;;31.83;24.77;;;12.00;55.60;;;;;;1489989;39;20054;-53
2021/05/01 02:15:38;;;;;;;31.23;24.08;;;12.00;55.60;;;;;;1491050;39;20321;-54
2021/05/01 02:16:59;;;;;;;32.38;24.52;;;12.00;55.60;;;;;;1489804;39;20032;-50
2021/05/01 02:18:20;;;;;;;32.25;24.90;;;12.00;55.50;;;;;;1489268;39;20042;-49
2021/05/01 02:19:41;;;;;;;32.72;23.45;;;12.00;55.50;;;;;;1489451;39;20363;-51
2021/05/01 02:21:02;;;;;;;32.25;25.10;;;12.00;55.50;;;;;;1487115;39;20036;-52
2021/05/01 02:22:23;;;;;;;32.42;25.15;;;12.00;55.50;;;;;;1489961;39;20102;-53
2021/05/01 02:23:44;;;;;;;31.23;24.92;;;11.90;55.50;;;;;;1489388;39;20030;-49
2021/05/01 02:25:10;;;;;;;29.52;24.15;;;11.90;55.50;;;;;;1490066;39;20024;-53
2021/05/01 02:26:31;;;;;;;31.30;24.90;;;11.90;55.50;;;;;;1489053;39;20264;-48
2021/05/01 02:27:53;;;;;;;32.88;25.95;;;11.90;55.40;;;;;;1489254;39;20701;-52
2021/05/01 02:29:14;;;;;;;31.75;25.13;;;11.90;55.50;;;;;;1490290;39;20280;-51
2021/05/01 02:30:35;;;;;;;33.78;25.98;;;11.90;55.50;;;;;;1489153;39;20429;-49
2021/05/01 02:31:56;;;;;;;34.95;26.05;;;11.80;55.50;;;;;;1488861;39;20043;-49
2021/05/01 02:33:16;;;;;;;34.28;25.42;;;11.80;55.60;;;;;;1487293;39;20058;-51
2021/05/01 02:34:37;;;;;;;33.03;25.08;;;11.80;55.60;;;;;;1488232;39;20588;-51
2021/05/01 02:35:58;;;;;;;30.90;25.05;;;11.80;55.60;;;;;;1489819;39;20071;-51
2021/05/01 02:37:19;;;;;;;32.00;24.92;;;11.80;55.70;;;;;;1490330;39;20027;-49
2021/05/01 02:38:40;;;;;;;31.67;25.40;;;11.80;55.60;;;;;;1488346;39;20030;-49
2021/05/01 02:40:06;;;;;;;35.35;26.13;;;11.80;55.60;;;;;;1490483;39;20031;-53
2021/05/01 02:41:27;;;;;;;31.50;25.02;;;11.70;55.70;;;;;;1488225;39;20081;-53
2021/05/01 02:42:49;;;;;;;33.08;25.70;;;11.80;55.60;;;;;;1489774;39;20418;-53
2021/05/01 02:44:10;;;;;;;33.83;25.15;;;11.70;55.60;;;;;;1489387;39;20031;-50
2021/05/01 02:45:31;;;;;;;31.05;24.83;;;11.70;55.60;;;;;;1488882;39;20032;-49
2021/05/01 02:46:51;;;;;;;33.78;25.45;;;11.70;55.70;;;;;;1487988;39;20032;-51
2021/05/01 02:48:12;;;;;;;32.45;26.20;;;11.70;55.70;;;;;;1487998;39;20349;-53
2021/05/01 02:49:33;;;;;;;34.75;26.70;;;11.70;55.80;;;;;;1489336;39;20020;-48
2021/05/01 02:50:54;;;;;;;29.73;24.65;;;11.70;55.70;;;;;;1488596;39;20119;-50
2021/05/01 02:52:15;;;;;;;33.75;25.38;;;11.70;55.70;;;;;;1488870;39;20038;-53
2021/05/01 02:53:36;;;;;;;32.65;24.83;;;11.60;55.60;;;;;;1488367;39;20035;-53
2021/05/01 02:54:57;;;;;;;28.75;24.40;;;11.60;55.60;;;;;;1490316;39;20215;-50
2021/05/01 02:56:18;;;;;;;33.45;25.55;;;11.60;55.60;;;;;;1489940;39;20169;-50
2021/05/01 02:57:39;;;;;;;32.13;24.95;;;11.60;55.60;;;;;;1490419;39;20066;-51
2021/05/01 02:59:00;;;;;;;30.98;25.20;;;11.60;55.70;;;;;;1490345;39;20063;-51
2021/05/01 03:00:23;;;;;;;29.27;24.50;;;11.60;55.70;;;;;;1489815;39;20038;-50
2021/05/01 03:01:44;;;;;;;31.98;25.05;;;11.50;55.70;;;;;;1489547;39;20072;-52
2021/05/01 03:03:05;;;;;;;32.00;24.77;;;11.50;55.60;;;;;;1487177;39;20364;-51
2021/05/01 03:04:26;;;;;;;27.77;23.42;;;11.50;55.60;;;;;;1489300;39;20374;-52
2021/05/01 03:05:47;;;;;;;32.58;24.77;;;11.50;55.60;;;;;;1488498;39;20256;-51
2021/05/01 03:07:08;;;;;;;30.38;24.48;;;11.50;55.60;;;;;;1490093;39;20353;-50
2021/05/01 03:08:28;;;;;;;31.42;25.58;;;11.50;55.60;;;;;;1489452;39;20070;-52
2021/05/01 03:09:50;;;;;;;32.42;24.67;;;11.50;55.60;;;;;;1489604;39;20097;-49
2021/05/01 03:11:11;;;;;;;32.92;25.73;;;11.50;55.60;;;;;;1489661;39;20120;-51
2021/05/01 03:12:32;;;;;;;31.77;24.15;;;11.50;55.60;;;;;;1489524;39;20028;-53
2021/05/01 03:13:53;;;;;;;31.40;24.27;;;11.40;55.70;;;;;;1489188;39;20119;-51
2021/05/01 03:15:15;;;;;;;31.67;24.65;;;11.40;55.70;;;;;;1488870;39;20063;-52
2021/05/01 03:16:36;;;;;;;31.20;24.00;;;11.40;55.70;;;;;;1484830;40;20040;-49
2021/05/01 03:17:57;;;;;;;31.48;25.48;;;11.40;55.70;;;;;;1488862;39;20043;-52
2021/05/01 03:19:18;;;;;;;32.28;23.83;;;11.40;55.70;;;;;;1490708;39;20113;-49
2021/05/01 03:20:39;;;;;;;30.63;23.65;;;11.40;55.70;;;;;;1489647;39;20051;-53
2021/05/01 03:22:00;;;;;;;30.98;24.77;;;11.40;55.70;;;;;;1485539;39;20068;-50
2021/05/01 03:23:21;;;;;;;35.42;25.05;;;11.40;56.30;;;;;;1487227;39;20051;-50
2021/05/01 03:24:42;;;;;;;33.35;25.83;;;11.40;55.80;;;;;;1490080;39;20035;-49
2021/05/01 03:26:03;;;;;;;28.75;22.63;;;11.30;55.80;;;;;;1490452;39;20042;-51
2021/05/01 03:27:24;;;;;;;32.67;24.20;;;11.40;55.90;;;;;;1489846;39;20096;-53
2021/05/01 03:28:45;;;;;;;33.08;24.45;;;11.30;55.80;;;;;;1488773;39;20046;-49
2021/05/01 03:30:12;;;;;;;29.17;23.13;;;11.30;55.80;;;;;;1490793;39;20128;-51
2021/05/01 03:31:33;;;;;;;29.85;23.60;;;11.30;55.80;;;;;;1487542;39;20457;-51
2021/05/01 03:32:54;;;;;;;31.23;23.30;;;11.30;55.70;;;;;;1488589;39;20040;-49
2021/05/01 03:34:15;;;;;;;30.67;24.02;;;11.30;56.20;;;;;;1488263;39;20043;-52
2021/05/01 03:35:36;;;;;;;29.98;23.95;;;11.30;55.60;;;;;;1489951;39;20020;-51
2021/05/01 03:36:57;;;;;;;33.75;24.88;;;11.20;55.60;;;;;;1489412;39;20073;-52
2021/05/01 03:38:17;;;;;;;32.35;25.17;;;11.20;55.60;;;;;;1489447;39;20348;-50
2021/05/01 03:39:38;;;;;;;31.52;24.50;;;11.20;55.60;;;;;;1489811;39;20117;-51
2021/05/01 03:41:00;;;;;;;31.33;24.33;;;11.20;55.60;;;;;;1489655;39;20095;-54
2021/05/01 03:42:20;;;;;;;32.70;24.58;;;11.20;55.60;;;;;;1490432;39;20035;-52
2021/05/01 03:43:41;;;;;;;32.78;25.38;;;11.10;55.60;;;;;;1487884;39;20091;-49
2021/05/01 03:45:04;;;;;;;32.72;24.45;;;11.10;55.60;;;;;;1485379;39;20026;-53
2021/05/01 03:46:24;;;;;;;32.35;24.80;;;11.10;55.60;;;;;;1487197;39;20039;-51
2021/05/01 03:47:45;;;;;;;30.65;24.20;;;11.10;55.60;;;;;;1489830;39;20349;-51
2021/05/01 03:49:06;;;;;;;30.13;23.63;;;11.10;55.60;;;;;;1488554;39;20349;-49
2021/05/01 03:50:27;;;;;;;31.90;24.92;;;11.00;55.60;;;;;;1488893;39;20027;-51
2021/05/01 03:51:48;;;;;;;30.73;23.77;;;11.00;55.70;;;;;;1487796;39;20415;-52
2021/05/01 03:53:09;;;;;;;33.10;24.83;;;11.10;55.80;;;;;;1489714;39;20036;-52
2021/05/01 03:54:30;;;;;;;34.03;24.83;;;11.00;55.70;;;;;;1487879;39;20061;-50
2021/05/01 03:55:51;;;;;;;31.00;23.63;;;11.00;55.80;;;;;;1490172;39;20020;-47
2021/05/01 03:57:12;;;;;;;31.83;24.20;;;11.00;55.80;;;;;;1489802;39;20031;-50
2021/05/01 03:58:33;;;;;;;31.63;24.13;;;11.00;55.70;;;;;;1487835;39;20024;-50
2021/05/01 03:59:54;;;;;;;29.85;23.38;;;11.00;55.70;;;;;;1488325;39;20159;-51
2021/05/01 04:01:15;;;;;;;27.20;22.52;;;10.90;55.70;;;;;;1491177;39;20094;-51
2021/05/01 04:02:36;;;;;;;29.23;22.48;;;10.90;55.70;;;;;;1490172;39;20359;-51
2021/05/01 04:03:57;;;;;;;31.13;23.98;;;10.90;55.80;;;;;;1490207;39;20331;-54
2021/05/01 04:05:19;;;;;;;31.40;23.50;;;10.90;55.70;;;;;;1488503;39;20115;-52
2021/05/01 04:06:40;;;;;;;34.60;25.85;;;10.90;55.60;;;;;;1490297;39;20445;-51
2021/05/01 04:08:01;;;;;;;30.63;23.40;;;10.90;55.60;;;;;;1491051;39;20031;-52
2021/05/01 04:09:22;;;;;;;29.65;23.00;;;10.90;55.60;;;;;;1489251;39;20039;-52
2021/05/01 04:10:43;;;;;;;30.70;22.73;;;10.90;55.70;;;;;;1490033;39;20032;-51
2021/05/01 04:12:04;;;;;;;33.15;24.38;;;10.90;56.20;;;;;;1488996;39;20032;-51
2021/05/01 04:13:26;;;;;;;31.20;23.52;;;10.90;55.80;;;;;;1489126;39;20026;-49
2021/05/01 04:14:47;;;;;;;29.95;22.50;;;10.80;55.80;;;;;;1489891;39;20642;-52
2021/05/01 04:16:08;;;;;;;30.58;23.17;;;10.80;55.70;;;;;;1486625;40;20036;-52
2021/05/01 04:17:28;;;;;;;32.80;24.33;;;10.80;55.60;;;;;;1486467;40;20024;-51
2021/05/01 04:18:50;;;;;;;30.55;24.00;;;10.80;55.60;;;;;;1487000;40;20064;-52
2021/05/01 04:20:11;;;;;;;32.38;23.58;;;10.80;55.70;;;;;;1488888;39;20035;-51
2021/05/01 04:21:32;;;;;;;30.55;23.20;;;10.70;55.60;;;;;;1490343;39;20268;-50
2021/05/01 04:22:53;;;;;;;29.60;23.58;;;10.70;55.50;;;;;;1490645;39;20475;-50
2021/05/01 04:24:14;;;;;;;30.48;23.52;;;10.70;55.50;;;;;;1491182;39;20036;-52
2021/05/01 04:25:36;;;;;;;33.17;24.27;;;10.70;55.70;;;;;;1490860;39;20036;-48
2021/05/01 04:26:57;;;;;;;31.65;22.77;;;10.70;55.70;;;;;;1489651;39;20462;-49
2021/05/01 04:28:18;;;;;;;27.25;21.80;;;10.70;55.80;;;;;;1490877;39;20059;-52
2021/05/01 04:29:39;;;;;;;31.52;23.60;;;10.70;55.80;;;;;;1490132;39;20028;-52
2021/05/01 04:31:00;;;;;;;27.92;22.65;;;10.60;55.80;;;;;;1490413;39;20032;-51
2021/05/01 04:32:21;;;;;;;28.65;23.00;;;10.70;55.90;;;;;;1489627;39;20032;-51
2021/05/01 04:33:41;;;;;;;28.83;22.70;;;10.60;55.80;;;;;;1490036;39;20064;-53
2021/05/01 04:35:04;;;;;;;31.70;24.50;;;10.70;55.90;;;;;;1489328;39;20345;-53
2021/05/01 04:36:25;;;;;;;33.50;22.83;;;10.60;56.00;;;;;;1488487;39;20162;-52
2021/05/01 04:37:46;;;;;;;27.70;21.55;;;10.60;56.10;;;;;;1491206;39;20035;-52
2021/05/01 04:39:07;;;;;;;28.92;22.08;;;10.60;56.10;;;;;;1491085;39;20031;-52
2021/05/01 04:40:28;;;;;;;27.95;21.77;;;10.60;56.00;;;;;;1489710;39;20032;-52
2021/05/01 04:41:49;;;;;;;29.00;22.10;;;10.60;56.10;;;;;;1490505;39;20407;-51
2021/05/01 04:43:11;;;;;;;28.33;22.33;;;10.60;56.00;;;;;;1490183;39;20027;-51
2021/05/01 04:44:32;;;;;;;28.77;21.98;;;10.60;56.20;;;;;;1490918;39;20039;-50
2021/05/01 04:45:54;;;;;;;29.40;22.88;;;10.60;56.40;;;;;;1489589;39;20036;-51
2021/05/01 04:47:16;;;;;;;27.30;21.45;;;10.50;56.40;;;;;;1488669;39;20030;-52
2021/05/01 04:48:37;;;;;;;27.83;20.55;;;10.50;56.40;;;;;;1490100;39;20054;-52
2021/05/01 04:49:57;;;;;;;28.75;22.70;;;10.50;56.40;;;;;;1490558;39;20022;-52
2021/05/01 04:51:19;;;;;;;30.98;21.40;;;10.50;56.50;;;;;;1489629;39;20218;-52
2021/05/01 04:52:40;;;;;;;28.38;21.05;;;10.50;56.50;;;;;;1488914;39;20261;-53
2021/05/01 04:54:02;;;;;;;28.83;21.27;;;10.60;56.60;;;;;;1490753;39;20089;-52
2021/05/01 04:55:25;;;;;;;31.13;22.25;;;10.50;56.50;;;;;;1488536;39;20031;-51
2021/05/01 04:56:46;;;;;;;34.13;23.17;;;10.50;56.50;;;;;;1488507;39;20042;-53
2021/05/01 04:58:07;;;;;;;31.83;22.58;;;10.60;56.50;;;;;;1490261;39;20044;-49
2021/05/01 04:59:28;;;;;;;30.98;22.33;;;10.50;56.40;;;;;;1490393;39;20384;-52
2021/05/01 05:00:49;;;;;;;28.98;21.35;;;10.50;56.50;;;;;;1489643;39;20043;-53
2021/05/01 05:02:10;;;;;;;28.90;22.33;;;10.50;56.50;;;;;;1487773;39;20043;-52
2021/05/01 05:03:30;;;;;;;30.10;22.20;;;10.50;56.50;;;;;;1486959;39;20064;-49
2021/05/01 05:04:51;;;;;;;30.48;22.98;;;10.50;56.50;;;;;;1486490;40;20099;-52
2021/05/01 05:06:12;;;;;;;29.58;21.98;;;10.50;56.60;;;;;;1488222;39;20112;-53
2021/05/01 05:07:33;;;;;;;27.73;21.45;;;10.50;56.70;;;;;;1486235;40;20020;-50
2021/05/01 05:08:54;;;;;;;28.13;22.20;;;10.50;56.70;;;;;;1488407;39;20043;-53
2021/05/01 05:10:15;;;;;;;31.92;22.25;;;10.50;56.80;;;;;;1490465;39;20537;-53
2021/05/01 05:11:36;;;;;;;31.55;22.55;;;10.40;56.70;;;;;;1489423;39;20112;-52
2021/05/01 05:12:57;;;;;;;27.10;21.40;;;10.40;56.70;;;;;;1490018;39;20024;-53
2021/05/01 05:14:18;;;;;;;27.75;21.77;;;10.40;56.80;;;;;;1488127;39;20117;-52
2021/05/01 05:15:39;;;;;;;28.20;21.17;;;10.40;56.80;;;;;;1488428;39;20031;-52
2021/05/01 05:17:00;;;;;;;27.40;21.80;;;10.40;56.80;;;;;;1489811;39;20131;-55
2021/05/01 05:18:21;;;;;;;26.60;21.42;;;10.40;56.80;;;;;;1490440;39;20077;-54
2021/05/01 05:19:42;;;;;;;29.85;20.40;;;10.40;56.90;;;;;;1490914;39;20092;-51
2021/05/01 05:21:03;;;;;;;42.65;20.70;;;10.40;56.80;;;;;;1490259;39;20035;-51
2021/05/01 05:22:24;;;;;;;45.40;18.77;;;10.30;56.70;;;;;;1491601;39;20057;-51
2021/05/01 05:23:45;;;;;;;34.25;17.55;;;10.30;56.70;;;;;;1486897;40;20040;-53
2021/05/01 05:25:06;;;;;;;42.05;17.25;;;10.30;56.60;;;;;;1490451;39;20124;-49
2021/05/01 05:26:27;;;;;;;29.77;16.08;;;10.20;57.00;;;;;;1490932;39;20027;-53
2021/05/01 05:27:48;;;;;;;18.00;15.57;;;10.20;56.50;;;;;;1486365;40;20043;-51
2021/05/01 05:29:11;;;;;;;28.05;16.00;;;10.20;56.70;;;;;;1487718;40;20181;-53
2021/05/01 05:30:32;;;;;;;30.70;15.35;;;10.20;56.80;;;;;;1488639;39;20032;-52
2021/05/01 05:31:53;;;;;;;40.85;16.52;;;10.10;56.90;;;;;;1489329;39;20040;-52
2021/05/01 05:33:14;;;;;;;24.15;16.08;;;10.10;57.00;;;;;;1488653;39;20598;-53
2021/05/01 05:34:34;;;;;;;37.55;15.52;;;10.10;57.20;;;;;;1489700;39;20051;-53
2021/05/01 05:35:56;;;;;;;61.63;16.80;;;10.00;57.10;;;;;;1490533;39;20372;-53
2021/05/01 05:37:17;;;;;;;23.90;15.88;;;10.10;57.30;;;;;;1486880;40;20035;-52
2021/05/01 05:38:38;;;;;;;30.38;16.60;;;10.00;57.40;;;;;;1487661;40;20368;-54
2021/05/01 05:39:59;;;;;;;31.98;16.98;;;10.00;57.60;;;;;;1486580;40;20039;-52
2021/05/01 05:41:21;;;;;;;20.80;15.38;;;10.00;57.70;;;;;;1488238;39;20028;-53
2021/05/01 05:42:43;;;;;;;21.42;16.35;;;10.00;57.80;;;;;;1490069;39;20024;-54
2021/05/01 05:44:04;;;;;;;26.80;16.95;;;10.00;58.00;;;;;;1490682;39;20756;-53
2021/05/01 05:45:28;;;;;;;24.08;17.20;;;10.00;58.10;;;;;;1489544;39;20031;-52
2021/05/01 05:46:49;;;;;;;23.13;17.60;;;10.00;58.10;;;;;;1489463;39;20040;-53
2021/05/01 05:48:10;;;;;;;22.85;18.08;;;10.00;58.60;;;;;;1489374;39;20235;-53
2021/05/01 05:49:31;;;;;;;32.22;17.88;;;10.00;58.20;;;;;;1490421;39;20032;-53
2021/05/01 05:50:52;;;;;;;22.98;18.67;;;10.00;58.20;;;;;;1490256;39;20095;-52
2021/05/01 05:52:13;;;;;;;27.13;18.63;;;10.10;58.30;;;;;;1486835;40;20033;-54
2021/05/01 05:53:34;;;;;;;22.38;18.20;;;10.00;58.30;;;;;;1489709;39;20035;-51
2021/05/01 05:54:57;;;;;;;29.27;19.85;;;10.10;58.40;;;;;;1486830;40;20388;-50
2021/05/01 05:56:18;;;;;;;26.20;20.90;;;10.10;58.40;;;;;;1488646;39;20028;-51
2021/05/01 05:57:41;;;;;;;24.33;19.30;;;10.10;58.50;;;;;;1489995;39;20020;-52
2021/05/01 05:59:02;;;;;;;28.48;20.38;;;10.10;58.60;;;;;;1491405;39;20042;-52
2021/05/01 06:00:25;;;;;;;24.88;20.02;;;10.10;58.60;;;;;;1489918;39;20024;-51
2021/05/01 06:01:47;;;;;;;24.48;19.77;;;10.10;58.70;;;;;;1488838;39;21449;-52
2021/05/01 06:03:09;;;;;;;25.23;19.88;;;10.10;58.80;;;;;;1489484;39;20096;-52
2021/05/01 06:05:08;;;;;;;26.10;19.73;;;10.20;58.90;;;;;;1490647;39;20044;-52
2021/05/01 06:06:34;;;;;;;24.67;18.02;;;10.20;59.40;;;;;;1478473;40;20052;-52
2021/05/01 06:07:58;;;;;;;25.13;18.73;;;10.20;58.90;;;;;;1478938;40;20147;-49
2021/05/01 06:09:19;;;;;;;25.88;19.33;;;10.30;58.90;;;;;;1491586;39;20463;-51
2021/05/01 06:10:43;;;;;;;27.85;19.40;;;10.30;58.90;;;;;;1490987;39;20016;-51
2021/05/01 06:12:07;;;;;;;25.05;19.25;;;10.30;59.00;;;;;;1489397;39;20032;-51
2021/05/01 06:13:32;;;;;;;24.67;20.00;;;10.30;58.90;;;;;;1488577;39;20356;-51
2021/05/01 06:14:55;;;;;;;25.13;19.50;;;10.40;58.80;;;;;;1488997;39;20036;-52
2021/05/01 06:16:18;;;;;;;23.60;18.88;;;10.40;58.90;;;;;;1490431;39;20128;-49
2021/05/01 06:17:41;;;;;;;25.25;19.35;;;10.40;58.80;;;;;;1490030;39;20504;-53
2021/05/01 06:19:02;;;;;;;23.85;18.75;;;10.40;58.80;;;;;;1489353;39;20498;-49
2021/05/01 06:20:23;;;;;;;24.67;19.25;;;10.50;58.80;;;;;;1485941;40;20028;-51
2021/05/01 06:21:44;;;;;;;26.65;19.38;;;10.50;58.70;;;;;;1487968;39;20312;-52
2021/05/01 06:23:05;;;;;;;24.25;19.42;;;10.50;58.80;;;;;;1490266;39;20039;-49
2021/05/01 06:24:27;;;;;;;25.55;20.00;;;10.50;58.80;;;;;;1491350;39;20064;-49
2021/05/01 06:25:48;;;;;;;25.45;19.67;;;10.50;58.80;;;;;;1489368;39;20035;-53
2021/05/01 06:27:10;;;;;;;24.05;18.85;;;10.50;58.80;;;;;;1489024;39;20020;-51
2021/05/01 06:28:35;;;;;;;27.00;19.88;;;10.50;58.90;;;;;;1490144;39;20035;-51
2021/05/01 06:29:56;;;;;;;28.00;19.58;;;10.60;59.20;;;;;;1488512;39;20017;-50
2021/05/01 06:31:18;;;;;;;27.88;20.13;;;10.60;59.10;;;;;;1491005;39;20036;-49
2021/05/01 06:32:39;;;;;;;28.17;20.48;;;10.60;59.00;;;;;;1489864;39;20024;-49
2021/05/01 06:34:01;;;;;;;25.88;19.80;;;10.60;59.10;;;;;;1490083;39;20133;-52
2021/05/01 06:35:24;;;;;;;26.20;20.58;;;10.70;59.20;;;;;;1490733;39;20124;-49
2021/05/01 06:36:45;;;;;;;28.92;21.17;;;10.70;59.20;;;;;;1488675;39;20050;-49
2021/05/01 06:38:06;;;;;;;28.95;20.23;;;10.70;59.10;;;;;;1490967;39;20026;-50
2021/05/01 06:39:31;;;;;;;26.30;21.27;;;10.70;59.00;;;;;;1491477;39;20012;-49
2021/05/01 06:40:56;;;;;;;26.90;20.35;;;10.70;59.10;;;;;;1489396;39;20027;-48
2021/05/01 06:42:26;;;;;;;25.38;19.10;;;10.80;59.20;;;;;;1489265;39;20518;-50
2021/05/01 06:44:05;;;;;;;25.83;19.42;;;10.80;59.20;;;;;;1490885;39;20016;-47
2021/05/01 06:45:27;;;;;;;23.63;18.52;;;10.80;59.10;;;;;;1488754;39;20043;-55
2021/05/01 06:46:48;;;;;;;26.23;19.55;;;10.80;59.10;;;;;;1488860;39;20034;-50
2021/05/01 06:48:13;;;;;;;25.90;20.88;;;10.80;59.10;;;;;;1491283;39;20278;-49
2021/05/01 06:50:00;;;;;;;26.17;18.90;;;10.90;59.20;;;;;;1489635;39;20109;-51
2021/05/01 06:51:21;;;;;;;24.95;18.67;;;10.90;59.50;;;;;;1489836;39;20389;-48
2021/05/01 06:52:44;;;;;;;25.15;17.88;;;11.00;59.10;;;;;;1490806;39;20023;-54
2021/05/01 06:54:09;;;;;;;24.15;18.05;;;10.90;59.00;;;;;;1489721;39;20036;-49
2021/05/01 06:55:32;;;;;;;25.27;19.35;;;11.00;59.10;;;;;;1488596;39;20036;-51